sensor_id;sensor_type;location;lat;lon;timestamp;P1;durP1;ratioP1;P2;durP2;ratioP2
5217;SDS011;26539;51.064;6.346;2023-04-24T00:00:54;2.47;;;2.20;;
5217;SDS011;26539;51.064;6.346;2023-04-24T00:03:27;4.50;;;3.20;;
5217;SDS011;26539;51.064;6.346;2023-04-24T00:05:54;3.77;;;2.90;;
5217;SDS011;26539;51.064;6.346;2023-04-24T00:08:19;3.00;;;2.70;;
5217;SDS011;26539;51.064;6.346;2023-04-24T00:10:45;4.70;;;3.03;;
5217;SDS011;26539;51.064;6.346;2023-04-24T00:13:11;4.50;;;2.63;;
5217;SDS011;26539;51.064;6.346;2023-04-24T00:15:39;3.13;;;2.80;;
5217;SDS011;26539;51.064;6.346;2023-04-24T00:18:08;5.37;;;2.60;;
5217;SDS011;26539;51.064;6.346;2023-04-24T00:20:36;3.60;;;3.00;;
5217;SDS011;26539;51.064;6.346;2023-04-24T00:23:05;3.30;;;2.70;;
5217;SDS011;26539;51.064;6.346;2023-04-24T00:25:31;5.87;;;2.60;;
5217;SDS011;26539;51.064;6.346;2023-04-24T00:27:56;4.60;;;3.10;;
5217;SDS011;26539;51.064;6.346;2023-04-24T00:30:22;5.13;;;2.90;;
5217;SDS011;26539;51.064;6.346;2023-04-24T00:32:47;5.27;;;3.37;;
5217;SDS011;26539;51.064;6.346;2023-04-24T00:35:13;5.70;;;3.00;;
5217;SDS011;26539;51.064;6.346;2023-04-24T00:37:39;6.13;;;3.90;;
5217;SDS011;26539;51.064;6.346;2023-04-24T00:40:05;5.53;;;4.43;;
5217;SDS011;26539;51.064;6.346;2023-04-24T00:42:31;5.33;;;3.13;;
5217;SDS011;26539;51.064;6.346;2023-04-24T00:45:06;7.60;;;3.97;;
5217;SDS011;26539;51.064;6.346;2023-04-24T00:47:33;6.90;;;4.93;;
5217;SDS011;26539;51.064;6.346;2023-04-24T00:50:00;5.77;;;5.10;;
5217;SDS011;26539;51.064;6.346;2023-04-24T00:52:27;6.33;;;4.43;;
5217;SDS011;26539;51.064;6.346;2023-04-24T00:54:53;7.93;;;5.37;;
5217;SDS011;26539;51.064;6.346;2023-04-24T00:57:19;7.17;;;5.70;;
5217;SDS011;26539;51.064;6.346;2023-04-24T00:59:44;8.33;;;5.30;;
5217;SDS011;26539;51.064;6.346;2023-04-24T01:02:11;6.13;;;5.20;;
5217;SDS011;26539;51.064;6.346;2023-04-24T01:04:37;8.97;;;6.50;;
5217;SDS011;26539;51.064;6.346;2023-04-24T01:07:03;9.03;;;6.33;;
5217;SDS011;26539;51.064;6.346;2023-04-24T01:09:34;8.30;;;5.70;;
5217;SDS011;26539;51.064;6.346;2023-04-24T01:12:04;11.93;;;6.30;;
5217;SDS011;26539;51.064;6.346;2023-04-24T01:14:30;9.10;;;6.43;;
5217;SDS011;26539;51.064;6.346;2023-04-24T01:16:56;10.60;;;7.50;;
5217;SDS011;26539;51.064;6.346;2023-04-24T01:19:22;15.77;;;7.83;;
5217;SDS011;26539;51.064;6.346;2023-04-24T01:21:48;11.67;;;8.53;;
5217;SDS011;26539;51.064;6.346;2023-04-24T01:24:18;10.63;;;7.83;;
5217;SDS011;26539;51.064;6.346;2023-04-24T01:26:44;12.83;;;8.60;;
5217;SDS011;26539;51.064;6.346;2023-04-24T01:29:11;13.20;;;9.10;;
5217;SDS011;26539;51.064;6.346;2023-04-24T01:31:37;10.90;;;8.30;;
5217;SDS011;26539;51.064;6.346;2023-04-24T01:34:04;12.57;;;8.10;;
5217;SDS011;26539;51.064;6.346;2023-04-24T01:36:39;14.83;;;8.73;;
5217;SDS011;26539;51.064;6.346;2023-04-24T01:39:18;14.70;;;8.30;;
5217;SDS011;26539;51.064;6.346;2023-04-24T01:41:47;12.67;;;8.63;;
5217;SDS011;26539;51.064;6.346;2023-04-24T01:44:14;12.43;;;8.70;;
5217;SDS011;26539;51.064;6.346;2023-04-24T01:46:40;16.80;;;10.27;;
5217;SDS011;26539;51.064;6.346;2023-04-24T01:49:06;14.17;;;10.03;;
5217;SDS011;26539;51.064;6.346;2023-04-24T01:51:32;20.50;;;10.90;;
5217;SDS011;26539;51.064;6.346;2023-04-24T01:53:57;13.67;;;10.53;;
5217;SDS011;26539;51.064;6.346;2023-04-24T01:56:23;18.30;;;11.23;;
5217;SDS011;26539;51.064;6.346;2023-04-24T01:58:50;17.00;;;11.67;;
5217;SDS011;26539;51.064;6.346;2023-04-24T02:01:19;13.60;;;10.40;;
5217;SDS011;26539;51.064;6.346;2023-04-24T02:03:45;20.90;;;11.30;;
5217;SDS011;26539;51.064;6.346;2023-04-24T02:06:11;15.73;;;11.60;;
5217;SDS011;26539;51.064;6.346;2023-04-24T02:08:37;14.37;;;11.07;;
5217;SDS011;26539;51.064;6.346;2023-04-24T02:11:02;14.80;;;11.67;;
5217;SDS011;26539;51.064;6.346;2023-04-24T02:13:28;20.87;;;10.90;;
5217;SDS011;26539;51.064;6.346;2023-04-24T02:15:54;17.50;;;11.43;;
5217;SDS011;26539;51.064;6.346;2023-04-24T02:18:20;17.03;;;10.87;;
5217;SDS011;26539;51.064;6.346;2023-04-24T02:20:47;17.47;;;10.80;;
5217;SDS011;26539;51.064;6.346;2023-04-24T02:23:13;14.53;;;10.80;;
5217;SDS011;26539;51.064;6.346;2023-04-24T02:25:39;14.33;;;10.67;;
5217;SDS011;26539;51.064;6.346;2023-04-24T02:28:05;14.43;;;10.60;;
5217;SDS011;26539;51.064;6.346;2023-04-24T02:30:30;22.40;;;11.60;;
5217;SDS011;26539;51.064;6.346;2023-04-24T02:32:56;11.90;;;9.80;;
5217;SDS011;26539;51.064;6.346;2023-04-24T02:35:21;13.63;;;10.10;;
5217;SDS011;26539;51.064;6.346;2023-04-24T02:37:47;14.07;;;9.97;;
5217;SDS011;26539;51.064;6.346;2023-04-24T02:40:13;13.00;;;9.77;;
5217;SDS011;26539;51.064;6.346;2023-04-24T02:42:38;17.40;;;10.60;;
5217;SDS011;26539;51.064;6.346;2023-04-24T02:45:04;15.23;;;9.67;;
5217;SDS011;26539;51.064;6.346;2023-04-24T02:47:32;19.23;;;9.87;;
5217;SDS011;26539;51.064;6.346;2023-04-24T02:49:58;17.50;;;11.30;;
5217;SDS011;26539;51.064;6.346;2023-04-24T02:52:23;16.00;;;10.47;;
5217;SDS011;26539;51.064;6.346;2023-04-24T02:54:49;17.20;;;9.37;;
5217;SDS011;26539;51.064;6.346;2023-04-24T02:57:14;13.60;;;9.87;;
5217;SDS011;26539;51.064;6.346;2023-04-24T02:59:43;13.77;;;9.83;;
5217;SDS011;26539;51.064;6.346;2023-04-24T03:02:08;18.53;;;10.23;;
5217;SDS011;26539;51.064;6.346;2023-04-24T03:04:34;18.80;;;10.80;;
5217;SDS011;26539;51.064;6.346;2023-04-24T03:06:59;11.93;;;9.77;;
5217;SDS011;26539;51.064;6.346;2023-04-24T03:09:28;15.10;;;9.67;;
5217;SDS011;26539;51.064;6.346;2023-04-24T03:11:54;16.63;;;10.20;;
5217;SDS011;26539;51.064;6.346;2023-04-24T03:14:20;20.77;;;10.37;;
5217;SDS011;26539;51.064;6.346;2023-04-24T03:16:46;17.23;;;11.00;;
5217;SDS011;26539;51.064;6.346;2023-04-24T03:19:14;17.07;;;10.87;;
5217;SDS011;26539;51.064;6.346;2023-04-24T03:21:42;15.93;;;10.00;;
5217;SDS011;26539;51.064;6.346;2023-04-24T03:24:08;13.17;;;10.43;;
5217;SDS011;26539;51.064;6.346;2023-04-24T03:26:34;13.90;;;11.33;;
5217;SDS011;26539;51.064;6.346;2023-04-24T03:29:00;21.03;;;11.03;;
5217;SDS011;26539;51.064;6.346;2023-04-24T03:31:26;15.10;;;10.80;;
5217;SDS011;26539;51.064;6.346;2023-04-24T03:33:51;14.83;;;10.80;;
5217;SDS011;26539;51.064;6.346;2023-04-24T03:36:17;12.70;;;10.10;;
5217;SDS011;26539;51.064;6.346;2023-04-24T03:38:44;16.13;;;10.80;;
5217;SDS011;26539;51.064;6.346;2023-04-24T03:41:10;13.30;;;9.63;;
5217;SDS011;26539;51.064;6.346;2023-04-24T03:43:35;14.40;;;12.40;;
5217;SDS011;26539;51.064;6.346;2023-04-24T03:46:01;13.57;;;10.50;;
5217;SDS011;26539;51.064;6.346;2023-04-24T03:48:27;14.17;;;10.90;;
5217;SDS011;26539;51.064;6.346;2023-04-24T03:50:52;18.50;;;9.53;;
5217;SDS011;26539;51.064;6.346;2023-04-24T03:53:18;10.87;;;9.77;;
5217;SDS011;26539;51.064;6.346;2023-04-24T03:55:46;16.57;;;10.10;;
5217;SDS011;26539;51.064;6.346;2023-04-24T03:58:12;17.97;;;9.50;;
5217;SDS011;26539;51.064;6.346;2023-04-24T04:00:41;13.37;;;10.10;;
5217;SDS011;26539;51.064;6.346;2023-04-24T04:03:06;14.17;;;8.77;;
5217;SDS011;26539;51.064;6.346;2023-04-24T04:05:32;13.77;;;9.53;;
5217;SDS011;26539;51.064;6.346;2023-04-24T04:07:58;11.40;;;10.00;;
5217;SDS011;26539;51.064;6.346;2023-04-24T04:10:26;14.10;;;10.67;;
5217;SDS011;26539;51.064;6.346;2023-04-24T04:12:51;14.83;;;9.70;;
5217;SDS011;26539;51.064;6.346;2023-04-24T04:15:17;10.87;;;8.97;;
5217;SDS011;26539;51.064;6.346;2023-04-24T04:17:42;13.43;;;8.70;;
5217;SDS011;26539;51.064;6.346;2023-04-24T04:20:08;13.77;;;9.97;;
5217;SDS011;26539;51.064;6.346;2023-04-24T04:22:35;10.47;;;8.20;;
5217;SDS011;26539;51.064;6.346;2023-04-24T04:25:01;12.85;;;9.82;;
5217;SDS011;26539;51.064;6.346;2023-04-24T04:27:30;10.88;;;8.80;;
5217;SDS011;26539;51.064;6.346;2023-04-24T04:29:57;10.63;;;8.77;;
5217;SDS011;26539;51.064;6.346;2023-04-24T04:32:26;11.70;;;8.32;;
5217;SDS011;26539;51.064;6.346;2023-04-24T04:34:55;11.33;;;9.23;;
5217;SDS011;26539;51.064;6.346;2023-04-24T04:37:20;16.73;;;10.33;;
5217;SDS011;26539;51.064;6.346;2023-04-24T04:39:46;11.13;;;9.03;;
5217;SDS011;26539;51.064;6.346;2023-04-24T04:42:11;14.73;;;8.73;;
5217;SDS011;26539;51.064;6.346;2023-04-24T04:44:54;14.40;;;8.50;;
5217;SDS011;26539;51.064;6.346;2023-04-24T04:47:21;10.82;;;7.20;;
5217;SDS011;26539;51.064;6.346;2023-04-24T04:49:49;10.00;;;7.90;;
5217;SDS011;26539;51.064;6.346;2023-04-24T04:52:17;12.20;;;8.67;;
5217;SDS011;26539;51.064;6.346;2023-04-24T04:54:43;10.27;;;8.03;;
5217;SDS011;26539;51.064;6.346;2023-04-24T04:57:09;11.73;;;8.93;;
5217;SDS011;26539;51.064;6.346;2023-04-24T04:59:35;16.50;;;10.17;;
5217;SDS011;26539;51.064;6.346;2023-04-24T05:02:00;12.10;;;8.70;;
5217;SDS011;26539;51.064;6.346;2023-04-24T05:04:28;15.87;;;9.90;;
5217;SDS011;26539;51.064;6.346;2023-04-24T05:06:57;10.70;;;8.63;;
5217;SDS011;26539;51.064;6.346;2023-04-24T05:09:22;10.20;;;7.73;;
5217;SDS011;26539;51.064;6.346;2023-04-24T05:11:51;15.03;;;8.73;;
5217;SDS011;26539;51.064;6.346;2023-04-24T05:14:22;10.10;;;7.97;;
5217;SDS011;26539;51.064;6.346;2023-04-24T05:16:48;11.63;;;7.00;;
5217;SDS011;26539;51.064;6.346;2023-04-24T05:19:14;11.03;;;7.50;;
5217;SDS011;26539;51.064;6.346;2023-04-24T05:21:40;10.87;;;6.73;;
5217;SDS011;26539;51.064;6.346;2023-04-24T05:24:06;11.80;;;8.07;;
5217;SDS011;26539;51.064;6.346;2023-04-24T05:26:31;9.20;;;6.50;;
5217;SDS011;26539;51.064;6.346;2023-04-24T05:28:57;10.33;;;7.33;;
5217;SDS011;26539;51.064;6.346;2023-04-24T05:31:23;8.90;;;6.50;;
5217;SDS011;26539;51.064;6.346;2023-04-24T05:33:58;8.70;;;6.90;;
5217;SDS011;26539;51.064;6.346;2023-04-24T05:36:26;7.43;;;6.20;;
5217;SDS011;26539;51.064;6.346;2023-04-24T05:38:52;7.23;;;5.90;;
5217;SDS011;26539;51.064;6.346;2023-04-24T05:41:29;6.00;;;5.20;;
5217;SDS011;26539;51.064;6.346;2023-04-24T05:44:03;7.20;;;6.10;;
5217;SDS011;26539;51.064;6.346;2023-04-24T05:46:35;8.50;;;6.90;;
5217;SDS011;26539;51.064;6.346;2023-04-24T05:49:15;9.33;;;6.70;;
5217;SDS011;26539;51.064;6.346;2023-04-24T05:51:46;8.50;;;6.87;;
5217;SDS011;26539;51.064;6.346;2023-04-24T05:54:11;9.87;;;7.30;;
5217;SDS011;26539;51.064;6.346;2023-04-24T05:56:39;15.70;;;8.33;;
5217;SDS011;26539;51.064;6.346;2023-04-24T05:59:08;15.93;;;9.57;;
5217;SDS011;26539;51.064;6.346;2023-04-24T06:01:42;11.70;;;8.20;;
5217;SDS011;26539;51.064;6.346;2023-04-24T06:07:17;10.80;;;7.47;;
5217;SDS011;26539;51.064;6.346;2023-04-24T06:09:43;13.90;;;10.50;;
5217;SDS011;26539;51.064;6.346;2023-04-24T06:12:09;11.23;;;8.60;;
5217;SDS011;26539;51.064;6.346;2023-04-24T06:14:37;10.57;;;8.23;;
5217;SDS011;26539;51.064;6.346;2023-04-24T06:17:02;10.83;;;7.37;;
5217;SDS011;26539;51.064;6.346;2023-04-24T06:19:28;9.03;;;7.47;;
5217;SDS011;26539;51.064;6.346;2023-04-24T06:21:54;9.87;;;6.90;;
5217;SDS011;26539;51.064;6.346;2023-04-24T06:24:19;9.50;;;7.40;;
5217;SDS011;26539;51.064;6.346;2023-04-24T06:26:45;8.73;;;6.97;;
5217;SDS011;26539;51.064;6.346;2023-04-24T06:29:10;8.97;;;6.70;;
5217;SDS011;26539;51.064;6.346;2023-04-24T06:31:36;9.87;;;6.70;;
5217;SDS011;26539;51.064;6.346;2023-04-24T06:34:02;8.43;;;6.20;;
5217;SDS011;26539;51.064;6.346;2023-04-24T06:36:28;9.00;;;5.90;;
5217;SDS011;26539;51.064;6.346;2023-04-24T06:38:54;7.53;;;4.77;;
5217;SDS011;26539;51.064;6.346;2023-04-24T06:41:20;6.17;;;4.70;;
5217;SDS011;26539;51.064;6.346;2023-04-24T06:43:45;7.20;;;4.70;;
5217;SDS011;26539;51.064;6.346;2023-04-24T06:46:11;8.03;;;4.33;;
5217;SDS011;26539;51.064;6.346;2023-04-24T06:48:37;3.70;;;3.23;;
5217;SDS011;26539;51.064;6.346;2023-04-24T06:51:02;4.07;;;3.67;;
5217;SDS011;26539;51.064;6.346;2023-04-24T06:53:28;3.00;;;2.70;;
5217;SDS011;26539;51.064;6.346;2023-04-24T06:55:53;3.70;;;2.93;;
5217;SDS011;26539;51.064;6.346;2023-04-24T06:58:19;5.70;;;3.25;;
5217;SDS011;26539;51.064;6.346;2023-04-24T07:00:45;3.67;;;2.90;;
5217;SDS011;26539;51.064;6.346;2023-04-24T07:03:11;4.87;;;3.53;;
5217;SDS011;26539;51.064;6.346;2023-04-24T07:05:36;5.57;;;4.10;;
5217;SDS011;26539;51.064;6.346;2023-04-24T07:08:03;5.55;;;3.60;;
5217;SDS011;26539;51.064;6.346;2023-04-24T07:10:28;6.60;;;3.83;;
5217;SDS011;26539;51.064;6.346;2023-04-24T07:12:55;6.00;;;3.80;;
5217;SDS011;26539;51.064;6.346;2023-04-24T07:15:21;5.07;;;4.50;;
5217;SDS011;26539;51.064;6.346;2023-04-24T07:17:49;7.93;;;5.33;;
5217;SDS011;26539;51.064;6.346;2023-04-24T07:20:15;6.10;;;5.23;;
5217;SDS011;26539;51.064;6.346;2023-04-24T07:22:40;2.47;;;2.00;;
5217;SDS011;26539;51.064;6.346;2023-04-24T07:25:06;1.83;;;1.50;;
5217;SDS011;26539;51.064;6.346;2023-04-24T07:27:33;2.10;;;0.95;;
5217;SDS011;26539;51.064;6.346;2023-04-24T07:29:59;1.80;;;1.20;;
5217;SDS011;26539;51.064;6.346;2023-04-24T07:32:25;1.60;;;1.20;;
5217;SDS011;26539;51.064;6.346;2023-04-24T07:34:51;2.60;;;1.73;;
5217;SDS011;26539;51.064;6.346;2023-04-24T07:37:17;2.10;;;1.90;;
5217;SDS011;26539;51.064;6.346;2023-04-24T07:39:42;6.80;;;3.90;;
5217;SDS011;26539;51.064;6.346;2023-04-24T07:42:08;6.50;;;3.70;;
5217;SDS011;26539;51.064;6.346;2023-04-24T07:44:34;8.73;;;6.20;;
5217;SDS011;26539;51.064;6.346;2023-04-24T07:47:00;9.23;;;6.20;;
5217;SDS011;26539;51.064;6.346;2023-04-24T07:49:26;8.53;;;6.20;;
5217;SDS011;26539;51.064;6.346;2023-04-24T07:51:52;10.13;;;5.63;;
5217;SDS011;26539;51.064;6.346;2023-04-24T07:54:18;10.10;;;5.63;;
5217;SDS011;26539;51.064;6.346;2023-04-24T07:56:44;8.37;;;5.60;;
5217;SDS011;26539;51.064;6.346;2023-04-24T07:59:10;7.17;;;5.00;;
5217;SDS011;26539;51.064;6.346;2023-04-24T08:01:35;10.20;;;5.20;;
5217;SDS011;26539;51.064;6.346;2023-04-24T08:04:01;7.30;;;5.47;;
5217;SDS011;26539;51.064;6.346;2023-04-24T08:06:27;11.10;;;5.10;;
5217;SDS011;26539;51.064;6.346;2023-04-24T08:08:55;6.05;;;5.45;;
5217;SDS011;26539;51.064;6.346;2023-04-24T08:11:21;5.47;;;4.53;;
5217;SDS011;26539;51.064;6.346;2023-04-24T08:13:48;7.70;;;4.90;;
5217;SDS011;26539;51.064;6.346;2023-04-24T08:16:13;9.27;;;4.80;;
5217;SDS011;26539;51.064;6.346;2023-04-24T08:18:39;7.83;;;4.90;;
5217;SDS011;26539;51.064;6.346;2023-04-24T08:21:05;5.23;;;4.53;;
5217;SDS011;26539;51.064;6.346;2023-04-24T08:23:30;6.47;;;4.47;;
5217;SDS011;26539;51.064;6.346;2023-04-24T08:25:56;5.20;;;4.33;;
5217;SDS011;26539;51.064;6.346;2023-04-24T08:28:22;6.03;;;5.32;;
5217;SDS011;26539;51.064;6.346;2023-04-24T08:30:48;6.90;;;6.20;;
5217;SDS011;26539;51.064;6.346;2023-04-24T08:33:19;7.32;;;6.57;;
5217;SDS011;26539;51.064;6.346;2023-04-24T08:35:47;9.60;;;5.05;;
5217;SDS011;26539;51.064;6.346;2023-04-24T08:38:13;8.90;;;5.90;;
5217;SDS011;26539;51.064;6.346;2023-04-24T08:40:39;8.17;;;6.33;;
5217;SDS011;26539;51.064;6.346;2023-04-24T08:43:04;10.57;;;6.80;;
5217;SDS011;26539;51.064;6.346;2023-04-24T08:45:30;9.70;;;7.40;;
5217;SDS011;26539;51.064;6.346;2023-04-24T08:47:57;15.25;;;7.68;;
5217;SDS011;26539;51.064;6.346;2023-04-24T08:50:24;10.90;;;7.40;;
5217;SDS011;26539;51.064;6.346;2023-04-24T08:52:50;11.03;;;8.00;;
5217;SDS011;26539;51.064;6.346;2023-04-24T08:55:18;12.25;;;8.73;;
5217;SDS011;26539;51.064;6.346;2023-04-24T08:57:45;11.18;;;8.50;;
5217;SDS011;26539;51.064;6.346;2023-04-24T09:00:16;12.45;;;8.93;;
5217;SDS011;26539;51.064;6.346;2023-04-24T09:02:42;12.63;;;8.73;;
5217;SDS011;26539;51.064;6.346;2023-04-24T09:05:11;11.67;;;8.67;;
5217;SDS011;26539;51.064;6.346;2023-04-24T09:07:38;14.50;;;9.37;;
5217;SDS011;26539;51.064;6.346;2023-04-24T09:10:06;13.40;;;8.73;;
5217;SDS011;26539;51.064;6.346;2023-04-24T09:12:33;15.40;;;9.50;;
5217;SDS011;26539;51.064;6.346;2023-04-24T09:15:00;14.53;;;9.40;;
5217;SDS011;26539;51.064;6.346;2023-04-24T09:17:28;16.43;;;10.07;;
5217;SDS011;26539;51.064;6.346;2023-04-24T09:19:53;18.67;;;9.10;;
5217;SDS011;26539;51.064;6.346;2023-04-24T09:22:20;16.90;;;8.80;;
5217;SDS011;26539;51.064;6.346;2023-04-24T09:24:46;14.23;;;8.17;;
5217;SDS011;26539;51.064;6.346;2023-04-24T09:27:12;10.43;;;8.33;;
5217;SDS011;26539;51.064;6.346;2023-04-24T09:29:39;13.80;;;7.60;;
5217;SDS011;26539;51.064;6.346;2023-04-24T09:32:21;14.93;;;7.70;;
5217;SDS011;26539;51.064;6.346;2023-04-24T09:34:49;12.30;;;7.00;;
5217;SDS011;26539;51.064;6.346;2023-04-24T09:37:29;8.13;;;7.23;;
5217;SDS011;26539;51.064;6.346;2023-04-24T09:42:40;11.20;;;5.90;;
5217;SDS011;26539;51.064;6.346;2023-04-24T09:45:09;7.87;;;5.73;;
5217;SDS011;26539;51.064;6.346;2023-04-24T09:47:39;7.33;;;5.17;;
5217;SDS011;26539;51.064;6.346;2023-04-24T09:50:09;12.90;;;5.20;;
5217;SDS011;26539;51.064;6.346;2023-04-24T09:52:39;10.03;;;5.33;;
5217;SDS011;26539;51.064;6.346;2023-04-24T09:55:13;7.10;;;4.47;;
5217;SDS011;26539;51.064;6.346;2023-04-24T09:57:49;7.93;;;4.90;;
5217;SDS011;26539;51.064;6.346;2023-04-24T10:00:23;8.73;;;4.10;;
5217;SDS011;26539;51.064;6.346;2023-04-24T10:03:04;8.73;;;4.73;;
5217;SDS011;26539;51.064;6.346;2023-04-24T10:05:31;5.93;;;4.23;;
5217;SDS011;26539;51.064;6.346;2023-04-24T10:08:02;8.40;;;4.77;;
5217;SDS011;26539;51.064;6.346;2023-04-24T10:10:33;14.67;;;4.70;;
5217;SDS011;26539;51.064;6.346;2023-04-24T10:13:01;14.67;;;5.63;;
5217;SDS011;26539;51.064;6.346;2023-04-24T10:15:28;11.03;;;5.50;;
5217;SDS011;26539;51.064;6.346;2023-04-24T10:17:53;9.33;;;4.83;;
5217;SDS011;26539;51.064;6.346;2023-04-24T10:20:20;6.57;;;4.80;;
5217;SDS011;26539;51.064;6.346;2023-04-24T10:22:50;9.43;;;4.90;;
5217;SDS011;26539;51.064;6.346;2023-04-24T10:25:22;7.73;;;4.93;;
5217;SDS011;26539;51.064;6.346;2023-04-24T10:27:50;14.70;;;6.27;;
5217;SDS011;26539;51.064;6.346;2023-04-24T10:30:17;7.83;;;5.17;;
5217;SDS011;26539;51.064;6.346;2023-04-24T10:32:44;10.60;;;6.37;;
5217;SDS011;26539;51.064;6.346;2023-04-24T10:35:14;7.40;;;4.67;;
5217;SDS011;26539;51.064;6.346;2023-04-24T10:37:42;12.40;;;5.00;;
5217;SDS011;26539;51.064;6.346;2023-04-24T10:40:10;12.80;;;5.00;;
5217;SDS011;26539;51.064;6.346;2023-04-24T10:42:40;10.27;;;4.33;;
5217;SDS011;26539;51.064;6.346;2023-04-24T10:45:19;8.73;;;4.43;;
5217;SDS011;26539;51.064;6.346;2023-04-24T10:47:59;9.87;;;3.60;;
5217;SDS011;26539;51.064;6.346;2023-04-24T10:50:27;7.67;;;3.70;;
5217;SDS011;26539;51.064;6.346;2023-04-24T10:53:04;8.27;;;4.10;;
5217;SDS011;26539;51.064;6.346;2023-04-24T10:55:41;8.50;;;3.63;;
5217;SDS011;26539;51.064;6.346;2023-04-24T10:58:15;9.17;;;3.73;;
5217;SDS011;26539;51.064;6.346;2023-04-24T11:00:42;10.37;;;3.70;;
5217;SDS011;26539;51.064;6.346;2023-04-24T11:06:15;7.30;;;4.50;;
5217;SDS011;26539;51.064;6.346;2023-04-24T11:08:44;10.23;;;4.53;;
5217;SDS011;26539;51.064;6.346;2023-04-24T11:11:16;9.97;;;4.10;;
5217;SDS011;26539;51.064;6.346;2023-04-24T11:16:27;9.30;;;4.37;;
5217;SDS011;26539;51.064;6.346;2023-04-24T11:19:01;7.70;;;4.50;;
5217;SDS011;26539;51.064;6.346;2023-04-24T11:21:40;11.80;;;4.60;;
5217;SDS011;26539;51.064;6.346;2023-04-24T11:26:51;13.23;;;4.50;;
5217;SDS011;26539;51.064;6.346;2023-04-24T11:29:23;13.80;;;4.80;;
5217;SDS011;26539;51.064;6.346;2023-04-24T11:35:00;13.23;;;4.87;;
5217;SDS011;26539;51.064;6.346;2023-04-24T11:37:37;13.33;;;5.00;;
5217;SDS011;26539;51.064;6.346;2023-04-24T11:40:04;13.50;;;5.20;;
5217;SDS011;26539;51.064;6.346;2023-04-24T11:42:38;8.37;;;6.00;;
5217;SDS011;26539;51.064;6.346;2023-04-24T11:45:12;10.83;;;6.17;;
5217;SDS011;26539;51.064;6.346;2023-04-24T11:47:39;10.47;;;4.87;;
5217;SDS011;26539;51.064;6.346;2023-04-24T11:50:06;12.60;;;5.00;;
5217;SDS011;26539;51.064;6.346;2023-04-24T11:52:33;6.97;;;3.50;;
5217;SDS011;26539;51.064;6.346;2023-04-24T11:55:02;5.33;;;3.00;;
5217;SDS011;26539;51.064;6.346;2023-04-24T11:57:28;9.03;;;4.03;;
5217;SDS011;26539;51.064;6.346;2023-04-24T11:59:59;8.23;;;4.40;;
5217;SDS011;26539;51.064;6.346;2023-04-24T12:02:26;5.57;;;3.60;;
5217;SDS011;26539;51.064;6.346;2023-04-24T12:04:52;8.37;;;3.33;;
5217;SDS011;26539;51.064;6.346;2023-04-24T12:07:19;9.63;;;3.90;;
5217;SDS011;26539;51.064;6.346;2023-04-24T12:09:56;8.37;;;3.70;;
5217;SDS011;26539;51.064;6.346;2023-04-24T12:12:24;9.33;;;4.43;;
5217;SDS011;26539;51.064;6.346;2023-04-24T12:14:54;10.13;;;3.83;;
5217;SDS011;26539;51.064;6.346;2023-04-24T12:17:28;9.60;;;4.10;;
5217;SDS011;26539;51.064;6.346;2023-04-24T12:19:59;9.80;;;4.90;;
5217;SDS011;26539;51.064;6.346;2023-04-24T12:25:17;9.67;;;3.50;;
5217;SDS011;26539;51.064;6.346;2023-04-24T12:27:44;7.00;;;3.40;;
5217;SDS011;26539;51.064;6.346;2023-04-24T12:30:12;8.27;;;3.37;;
5217;SDS011;26539;51.064;6.346;2023-04-24T12:32:41;9.53;;;4.10;;
5217;SDS011;26539;51.064;6.346;2023-04-24T12:35:11;9.60;;;3.53;;
5217;SDS011;26539;51.064;6.346;2023-04-24T12:37:37;7.30;;;3.80;;
5217;SDS011;26539;51.064;6.346;2023-04-24T12:42:47;8.40;;;4.20;;
5217;SDS011;26539;51.064;6.346;2023-04-24T12:45:15;9.20;;;3.37;;
5217;SDS011;26539;51.064;6.346;2023-04-24T12:47:42;4.20;;;3.13;;
5217;SDS011;26539;51.064;6.346;2023-04-24T12:50:09;6.77;;;3.47;;
5217;SDS011;26539;51.064;6.346;2023-04-24T12:52:36;6.93;;;3.00;;
5217;SDS011;26539;51.064;6.346;2023-04-24T12:55:01;4.70;;;2.73;;
5217;SDS011;26539;51.064;6.346;2023-04-24T12:57:30;8.83;;;3.23;;
5217;SDS011;26539;51.064;6.346;2023-04-24T12:59:56;6.33;;;3.90;;
5217;SDS011;26539;51.064;6.346;2023-04-24T13:02:23;7.20;;;3.80;;
5217;SDS011;26539;51.064;6.346;2023-04-24T13:04:50;5.27;;;3.00;;
5217;SDS011;26539;51.064;6.346;2023-04-24T13:07:16;10.30;;;3.40;;
5217;SDS011;26539;51.064;6.346;2023-04-24T13:09:42;5.33;;;3.47;;
5217;SDS011;26539;51.064;6.346;2023-04-24T13:12:09;8.43;;;3.77;;
5217;SDS011;26539;51.064;6.346;2023-04-24T13:14:35;6.30;;;3.50;;
5217;SDS011;26539;51.064;6.346;2023-04-24T13:17:01;4.50;;;3.20;;
5217;SDS011;26539;51.064;6.346;2023-04-24T13:19:27;7.30;;;3.83;;
5217;SDS011;26539;51.064;6.346;2023-04-24T13:21:54;6.27;;;3.70;;
5217;SDS011;26539;51.064;6.346;2023-04-24T13:24:21;5.37;;;3.20;;
5217;SDS011;26539;51.064;6.346;2023-04-24T13:26:49;8.47;;;3.73;;
5217;SDS011;26539;51.064;6.346;2023-04-24T13:29:15;5.37;;;2.70;;
5217;SDS011;26539;51.064;6.346;2023-04-24T13:31:41;10.30;;;3.90;;
5217;SDS011;26539;51.064;6.346;2023-04-24T13:34:06;6.03;;;3.57;;
5217;SDS011;26539;51.064;6.346;2023-04-24T13:36:32;5.93;;;3.70;;
5217;SDS011;26539;51.064;6.346;2023-04-24T13:38:57;9.10;;;4.20;;
5217;SDS011;26539;51.064;6.346;2023-04-24T13:41:23;9.07;;;3.30;;
5217;SDS011;26539;51.064;6.346;2023-04-24T13:43:49;8.63;;;4.27;;
5217;SDS011;26539;51.064;6.346;2023-04-24T13:46:15;5.30;;;3.67;;
5217;SDS011;26539;51.064;6.346;2023-04-24T13:48:41;7.80;;;3.60;;
5217;SDS011;26539;51.064;6.346;2023-04-24T13:51:07;5.13;;;3.00;;
5217;SDS011;26539;51.064;6.346;2023-04-24T13:53:32;8.07;;;3.50;;
5217;SDS011;26539;51.064;6.346;2023-04-24T13:56:01;10.77;;;3.10;;
5217;SDS011;26539;51.064;6.346;2023-04-24T13:58:27;5.90;;;2.90;;
5217;SDS011;26539;51.064;6.346;2023-04-24T14:00:52;5.57;;;3.00;;
5217;SDS011;26539;51.064;6.346;2023-04-24T14:03:18;6.10;;;3.13;;
5217;SDS011;26539;51.064;6.346;2023-04-24T14:05:43;6.80;;;3.30;;
5217;SDS011;26539;51.064;6.346;2023-04-24T14:08:09;11.50;;;4.33;;
5217;SDS011;26539;51.064;6.346;2023-04-24T14:10:35;6.90;;;3.77;;
5217;SDS011;26539;51.064;6.346;2023-04-24T14:13:00;6.27;;;3.37;;
5217;SDS011;26539;51.064;6.346;2023-04-24T14:15:26;6.60;;;3.10;;
5217;SDS011;26539;51.064;6.346;2023-04-24T14:17:51;7.70;;;3.37;;
5217;SDS011;26539;51.064;6.346;2023-04-24T14:20:17;7.90;;;3.30;;
5217;SDS011;26539;51.064;6.346;2023-04-24T14:22:43;8.20;;;3.27;;
5217;SDS011;26539;51.064;6.346;2023-04-24T14:25:08;6.93;;;3.10;;
5217;SDS011;26539;51.064;6.346;2023-04-24T14:27:34;10.50;;;3.73;;
5217;SDS011;26539;51.064;6.346;2023-04-24T14:30:00;6.40;;;3.03;;
5217;SDS011;26539;51.064;6.346;2023-04-24T14:32:25;4.70;;;3.10;;
5217;SDS011;26539;51.064;6.346;2023-04-24T14:34:51;10.10;;;3.67;;
5217;SDS011;26539;51.064;6.346;2023-04-24T14:37:17;6.03;;;3.00;;
5217;SDS011;26539;51.064;6.346;2023-04-24T14:39:42;4.43;;;2.60;;
5217;SDS011;26539;51.064;6.346;2023-04-24T14:42:08;5.47;;;2.90;;
5217;SDS011;26539;51.064;6.346;2023-04-24T14:44:33;3.50;;;2.40;;
5217;SDS011;26539;51.064;6.346;2023-04-24T14:46:59;3.27;;;2.53;;
5217;SDS011;26539;51.064;6.346;2023-04-24T14:49:25;7.37;;;3.00;;
5217;SDS011;26539;51.064;6.346;2023-04-24T14:51:51;3.23;;;2.40;;
5217;SDS011;26539;51.064;6.346;2023-04-24T14:54:16;9.53;;;3.03;;
5217;SDS011;26539;51.064;6.346;2023-04-24T14:56:42;12.40;;;3.77;;
5217;SDS011;26539;51.064;6.346;2023-04-24T14:59:09;3.60;;;2.97;;
5217;SDS011;26539;51.064;6.346;2023-04-24T15:01:35;6.73;;;3.10;;
5217;SDS011;26539;51.064;6.346;2023-04-24T15:04:01;6.63;;;3.00;;
5217;SDS011;26539;51.064;6.346;2023-04-24T15:06:26;6.13;;;3.70;;
5217;SDS011;26539;51.064;6.346;2023-04-24T15:08:52;3.97;;;3.13;;
5217;SDS011;26539;51.064;6.346;2023-04-24T15:11:17;9.37;;;3.73;;
5217;SDS011;26539;51.064;6.346;2023-04-24T15:13:43;4.93;;;3.67;;
5217;SDS011;26539;51.064;6.346;2023-04-24T15:16:12;7.77;;;3.43;;